sensor_id;sensor_type;location;lat;lon;timestamp;temperature;humidity
26378;DHT22;14078;50.974;6.786;2023-04-03T00:01:23;3.80;30.90
26378;DHT22;14078;50.974;6.786;2023-04-03T00:03:49;3.80;77.20
26378;DHT22;14078;50.974;6.786;2023-04-03T00:06:17;3.70;55.70
26378;DHT22;14078;50.974;6.786;2023-04-03T00:08:43;3.70;44.20
26378;DHT22;14078;50.974;6.786;2023-04-03T00:11:10;3.60;37.50
26378;DHT22;14078;50.974;6.786;2023-04-03T00:13:37;3.50;16.90
26378;DHT22;14078;50.974;6.786;2023-04-03T00:16:05;3.50;17.20
26378;DHT22;14078;50.974;6.786;2023-04-03T00:18:32;3.50;29.90
26378;DHT22;14078;50.974;6.786;2023-04-03T00:20:58;3.40;36.00
26378;DHT22;14078;50.974;6.786;2023-04-03T00:23:25;3.50;56.50
26378;DHT22;14078;50.974;6.786;2023-04-03T00:25:52;3.50;45.40
26378;DHT22;14078;50.974;6.786;2023-04-03T00:28:19;3.40;31.70
26378;DHT22;14078;50.974;6.786;2023-04-03T00:30:45;3.30;1.00
26378;DHT22;14078;50.974;6.786;2023-04-03T00:33:13;3.30;17.00
26378;DHT22;14078;50.974;6.786;2023-04-03T00:35:40;3.30;15.40
26378;DHT22;14078;50.974;6.786;2023-04-03T00:38:07;3.20;26.90
26378;DHT22;14078;50.974;6.786;2023-04-03T00:40:33;3.20;47.30
26378;DHT22;14078;50.974;6.786;2023-04-03T00:43:00;3.10;42.60
26378;DHT22;14078;50.974;6.786;2023-04-03T00:45:29;3.00;14.00
26378;DHT22;14078;50.974;6.786;2023-04-03T00:47:57;2.90;20.80
26378;DHT22;14078;50.974;6.786;2023-04-03T00:50:27;2.90;45.90
26378;DHT22;14078;50.974;6.786;2023-04-03T00:52:54;2.90;63.60
26378;DHT22;14078;50.974;6.786;2023-04-03T00:55:21;2.90;52.70
26378;DHT22;14078;50.974;6.786;2023-04-03T00:57:48;2.80;52.30
26378;DHT22;14078;50.974;6.786;2023-04-03T01:00:16;2.80;39.90
26378;DHT22;14078;50.974;6.786;2023-04-03T01:02:43;2.70;51.80
26378;DHT22;14078;50.974;6.786;2023-04-03T01:05:10;2.70;58.90
26378;DHT22;14078;50.974;6.786;2023-04-03T01:07:39;2.70;71.90
26378;DHT22;14078;50.974;6.786;2023-04-03T01:10:07;2.70;62.30
26378;DHT22;14078;50.974;6.786;2023-04-03T01:12:34;2.70;52.00
26378;DHT22;14078;50.974;6.786;2023-04-03T01:15:02;2.60;55.80
26378;DHT22;14078;50.974;6.786;2023-04-03T01:17:30;2.60;66.60
26378;DHT22;14078;50.974;6.786;2023-04-03T01:20:02;2.60;87.80
26378;DHT22;14078;50.974;6.786;2023-04-03T01:22:36;2.60;94.80
26378;DHT22;14078;50.974;6.786;2023-04-03T01:25:10;2.60;96.70
26378;DHT22;14078;50.974;6.786;2023-04-03T01:27:36;2.60;84.20
26378;DHT22;14078;50.974;6.786;2023-04-03T01:30:03;2.60;70.50
26378;DHT22;14078;50.974;6.786;2023-04-03T01:32:31;2.50;79.90
26378;DHT22;14078;50.974;6.786;2023-04-03T01:34:57;2.50;77.90
26378;DHT22;14078;50.974;6.786;2023-04-03T01:37:24;2.40;85.60
26378;DHT22;14078;50.974;6.786;2023-04-03T01:39:50;2.30;94.20
26378;DHT22;14078;50.974;6.786;2023-04-03T01:42:17;2.30;99.90
26378;DHT22;14078;50.974;6.786;2023-04-03T01:44:43;2.20;99.90
26378;DHT22;14078;50.974;6.786;2023-04-03T01:47:11;2.20;99.90
26378;DHT22;14078;50.974;6.786;2023-04-03T01:49:39;2.10;99.90
26378;DHT22;14078;50.974;6.786;2023-04-03T01:52:05;2.10;99.90
26378;DHT22;14078;50.974;6.786;2023-04-03T01:54:32;2.10;99.90
26378;DHT22;14078;50.974;6.786;2023-04-03T01:56:58;2.10;99.90
26378;DHT22;14078;50.974;6.786;2023-04-03T01:59:25;2.10;99.90
26378;DHT22;14078;50.974;6.786;2023-04-03T02:01:51;2.10;99.90
26378;DHT22;14078;50.974;6.786;2023-04-03T02:04:18;2.00;99.90
26378;DHT22;14078;50.974;6.786;2023-04-03T02:06:46;2.00;99.90
26378;DHT22;14078;50.974;6.786;2023-04-03T02:09:13;2.00;99.90
26378;DHT22;14078;50.974;6.786;2023-04-03T02:11:39;1.90;99.90
26378;DHT22;14078;50.974;6.786;2023-04-03T02:14:06;1.90;99.90
26378;DHT22;14078;50.974;6.786;2023-04-03T02:16:32;1.90;99.90
26378;DHT22;14078;50.974;6.786;2023-04-03T02:18:59;1.80;99.90
26378;DHT22;14078;50.974;6.786;2023-04-03T02:21:25;1.80;99.90
26378;DHT22;14078;50.974;6.786;2023-04-03T02:23:54;1.80;99.90
26378;DHT22;14078;50.974;6.786;2023-04-03T02:26:20;1.80;99.90
26378;DHT22;14078;50.974;6.786;2023-04-03T02:28:47;1.80;99.90
26378;DHT22;14078;50.974;6.786;2023-04-03T02:31:14;1.70;99.90
26378;DHT22;14078;50.974;6.786;2023-04-03T02:33:40;1.70;99.90
26378;DHT22;14078;50.974;6.786;2023-04-03T02:36:07;1.70;99.90
26378;DHT22;14078;50.974;6.786;2023-04-03T02:38:34;1.60;99.90
26378;DHT22;14078;50.974;6.786;2023-04-03T02:41:02;1.70;99.90
26378;DHT22;14078;50.974;6.786;2023-04-03T02:43:29;1.60;99.90
26378;DHT22;14078;50.974;6.786;2023-04-03T02:45:56;1.60;99.90
26378;DHT22;14078;50.974;6.786;2023-04-03T02:48:23;1.60;99.90
26378;DHT22;14078;50.974;6.786;2023-04-03T02:50:49;1.50;99.90
26378;DHT22;14078;50.974;6.786;2023-04-03T02:53:16;1.50;99.90
26378;DHT22;14078;50.974;6.786;2023-04-03T02:55:43;1.50;99.90
26378;DHT22;14078;50.974;6.786;2023-04-03T02:58:11;1.50;99.90
26378;DHT22;14078;50.974;6.786;2023-04-03T03:00:37;1.50;99.90
26378;DHT22;14078;50.974;6.786;2023-04-03T03:03:04;1.40;99.90
26378;DHT22;14078;50.974;6.786;2023-04-03T03:05:31;1.50;99.90
26378;DHT22;14078;50.974;6.786;2023-04-03T03:07:57;1.50;99.90
26378;DHT22;14078;50.974;6.786;2023-04-03T03:10:24;1.40;99.90
26378;DHT22;14078;50.974;6.786;2023-04-03T03:12:50;1.40;99.90
26378;DHT22;14078;50.974;6.786;2023-04-03T03:15:18;1.40;99.90
26378;DHT22;14078;50.974;6.786;2023-04-03T03:17:45;1.40;99.90
26378;DHT22;14078;50.974;6.786;2023-04-03T03:20:12;1.40;99.90
26378;DHT22;14078;50.974;6.786;2023-04-03T03:22:39;1.40;99.90
26378;DHT22;14078;50.974;6.786;2023-04-03T03:25:06;1.40;99.90
26378;DHT22;14078;50.974;6.786;2023-04-03T03:27:32;1.30;99.90
26378;DHT22;14078;50.974;6.786;2023-04-03T03:29:59;1.30;99.90
26378;DHT22;14078;50.974;6.786;2023-04-03T03:32:27;1.30;99.90
26378;DHT22;14078;50.974;6.786;2023-04-03T03:34:53;1.30;99.90
26378;DHT22;14078;50.974;6.786;2023-04-03T03:37:20;1.30;99.90
26378;DHT22;14078;50.974;6.786;2023-04-03T03:39:46;1.30;99.90
26378;DHT22;14078;50.974;6.786;2023-04-03T03:42:13;1.30;99.90
26378;DHT22;14078;50.974;6.786;2023-04-03T03:44:39;1.20;99.90
26378;DHT22;14078;50.974;6.786;2023-04-03T03:47:06;1.20;99.90
26378;DHT22;14078;50.974;6.786;2023-04-03T03:49:36;1.20;99.90
26378;DHT22;14078;50.974;6.786;2023-04-03T03:52:02;1.20;99.90
26378;DHT22;14078;50.974;6.786;2023-04-03T03:54:29;1.20;99.90
26378;DHT22;14078;50.974;6.786;2023-04-03T03:56:55;1.20;99.90
26378;DHT22;14078;50.974;6.786;2023-04-03T03:59:25;1.20;99.90
26378;DHT22;14078;50.974;6.786;2023-04-03T04:01:51;1.20;99.90
26378;DHT22;14078;50.974;6.786;2023-04-03T04:04:18;1.20;99.90
26378;DHT22;14078;50.974;6.786;2023-04-03T04:06:46;1.20;99.90
26378;DHT22;14078;50.974;6.786;2023-04-03T04:09:13;1.20;99.90
26378;DHT22;14078;50.974;6.786;2023-04-03T04:11:39;1.20;99.90
26378;DHT22;14078;50.974;6.786;2023-04-03T04:14:06;1.20;99.90
26378;DHT22;14078;50.974;6.786;2023-04-03T04:16:33;1.20;99.90
26378;DHT22;14078;50.974;6.786;2023-04-03T04:18:59;1.20;99.90
26378;DHT22;14078;50.974;6.786;2023-04-03T04:21:26;1.20;99.90
26378;DHT22;14078;50.974;6.786;2023-04-03T04:23:54;1.20;99.90
26378;DHT22;14078;50.974;6.786;2023-04-03T04:26:20;1.30;99.90
26378;DHT22;14078;50.974;6.786;2023-04-03T04:28:47;1.20;99.90
26378;DHT22;14078;50.974;6.786;2023-04-03T04:31:13;1.20;99.90
26378;DHT22;14078;50.974;6.786;2023-04-03T04:33:40;1.20;99.90
26378;DHT22;14078;50.974;6.786;2023-04-03T04:36:06;1.20;99.90
26378;DHT22;14078;50.974;6.786;2023-04-03T04:38:33;1.20;99.90
26378;DHT22;14078;50.974;6.786;2023-04-03T04:41:01;1.20;99.90
26378;DHT22;14078;50.974;6.786;2023-04-03T04:43:27;1.20;99.90
26378;DHT22;14078;50.974;6.786;2023-04-03T04:46:00;1.20;99.90
26378;DHT22;14078;50.974;6.786;2023-04-03T04:48:27;1.20;99.90
26378;DHT22;14078;50.974;6.786;2023-04-03T04:50:54;1.10;99.90
26378;DHT22;14078;50.974;6.786;2023-04-03T04:53:20;1.10;99.90
26378;DHT22;14078;50.974;6.786;2023-04-03T04:55:47;1.20;99.90
26378;DHT22;14078;50.974;6.786;2023-04-03T04:58:15;1.20;99.90
26378;DHT22;14078;50.974;6.786;2023-04-03T05:00:42;1.10;99.90
26378;DHT22;14078;50.974;6.786;2023-04-03T05:03:08;1.10;99.90
26378;DHT22;14078;50.974;6.786;2023-04-03T05:05:35;1.10;99.90
26378;DHT22;14078;50.974;6.786;2023-04-03T05:08:01;1.00;99.90
26378;DHT22;14078;50.974;6.786;2023-04-03T05:10:28;1.00;99.90
26378;DHT22;14078;50.974;6.786;2023-04-03T05:12:55;1.10;99.90
26378;DHT22;14078;50.974;6.786;2023-04-03T05:15:22;1.00;99.90
26378;DHT22;14078;50.974;6.786;2023-04-03T05:17:49;1.00;99.90
26378;DHT22;14078;50.974;6.786;2023-04-03T05:20:16;1.10;99.90
26378;DHT22;14078;50.974;6.786;2023-04-03T05:22:43;1.10;99.90
26378;DHT22;14078;50.974;6.786;2023-04-03T05:25:09;1.10;99.90
26378;DHT22;14078;50.974;6.786;2023-04-03T05:27:36;1.20;99.90
26378;DHT22;14078;50.974;6.786;2023-04-03T05:30:03;1.20;99.90
26378;DHT22;14078;50.974;6.786;2023-04-03T05:32:31;1.20;99.90
26378;DHT22;14078;50.974;6.786;2023-04-03T05:34:57;1.20;99.90
26378;DHT22;14078;50.974;6.786;2023-04-03T05:37:24;1.20;99.90
26378;DHT22;14078;50.974;6.786;2023-04-03T05:39:50;1.20;99.90
26378;DHT22;14078;50.974;6.786;2023-04-03T05:42:17;1.20;99.90
26378;DHT22;14078;50.974;6.786;2023-04-03T05:44:43;1.30;99.90
26378;DHT22;14078;50.974;6.786;2023-04-03T05:47:12;1.30;99.90
26378;DHT22;14078;50.974;6.786;2023-04-03T05:49:40;1.30;99.90
26378;DHT22;14078;50.974;6.786;2023-04-03T05:52:08;1.30;99.90
26378;DHT22;14078;50.974;6.786;2023-04-03T05:54:36;1.40;99.90
26378;DHT22;14078;50.974;6.786;2023-04-03T05:57:02;1.50;99.90
26378;DHT22;14078;50.974;6.786;2023-04-03T05:59:29;1.50;99.90
26378;DHT22;14078;50.974;6.786;2023-04-03T06:01:55;1.50;99.90
26378;DHT22;14078;50.974;6.786;2023-04-03T06:04:22;1.50;99.90
26378;DHT22;14078;50.974;6.786;2023-04-03T06:06:50;1.60;99.90
26378;DHT22;14078;50.974;6.786;2023-04-03T06:09:17;1.60;99.90
26378;DHT22;14078;50.974;6.786;2023-04-03T06:11:45;1.70;99.90
26378;DHT22;14078;50.974;6.786;2023-04-03T06:14:12;1.80;99.90
26378;DHT22;14078;50.974;6.786;2023-04-03T06:16:39;1.90;99.90
26378;DHT22;14078;50.974;6.786;2023-04-03T06:19:05;2.00;87.00
26378;DHT22;14078;50.974;6.786;2023-04-03T06:21:32;2.10;73.10
26378;DHT22;14078;50.974;6.786;2023-04-03T06:24:00;2.20;46.50
26378;DHT22;14078;50.974;6.786;2023-04-03T06:26:27;2.40;38.70
26378;DHT22;14078;50.974;6.786;2023-04-03T06:28:53;2.50;20.60
26378;DHT22;14078;50.974;6.786;2023-04-03T06:31:21;2.60;16.00
26378;DHT22;14078;50.974;6.786;2023-04-03T06:33:47;2.60;25.70
26378;DHT22;14078;50.974;6.786;2023-04-03T06:36:14;2.70;11.90
26378;DHT22;14078;50.974;6.786;2023-04-03T06:38:45;2.70;1.00
26378;DHT22;14078;50.974;6.786;2023-04-03T06:41:13;2.80;1.90
26378;DHT22;14078;50.974;6.786;2023-04-03T06:43:41;3.00;27.60
26378;DHT22;14078;50.974;6.786;2023-04-03T06:46:10;3.10;85.60
26378;DHT22;14078;50.974;6.786;2023-04-03T06:48:38;3.30;98.00
26378;DHT22;14078;50.974;6.786;2023-04-03T06:51:05;3.30;25.30
26378;DHT22;14078;50.974;6.786;2023-04-03T06:53:32;3.40;15.30
26378;DHT22;14078;50.974;6.786;2023-04-03T06:55:58;3.50;59.70
26378;DHT22;14078;50.974;6.786;2023-04-03T06:58:26;3.60;91.40
26378;DHT22;14078;50.974;6.786;2023-04-03T07:00:53;3.80;32.60
26378;DHT22;14078;50.974;6.786;2023-04-03T07:03:19;3.90;60.80
26378;DHT22;14078;50.974;6.786;2023-04-03T07:05:46;4.00;13.80
26378;DHT22;14078;50.974;6.786;2023-04-03T07:08:12;4.10;1.00
26378;DHT22;14078;50.974;6.786;2023-04-03T07:10:39;4.20;1.00
26378;DHT22;14078;50.974;6.786;2023-04-03T07:13:06;4.30;1.00
26378;DHT22;14078;50.974;6.786;2023-04-03T07:15:34;4.30;99.90
26378;DHT22;14078;50.974;6.786;2023-04-03T07:18:02;4.40;99.90
26378;DHT22;14078;50.974;6.786;2023-04-03T07:20:29;4.50;99.90
26378;DHT22;14078;50.974;6.786;2023-04-03T07:22:56;4.50;99.90
26378;DHT22;14078;50.974;6.786;2023-04-03T07:25:23;4.60;1.00
26378;DHT22;14078;50.974;6.786;2023-04-03T07:27:49;4.70;99.90
26378;DHT22;14078;50.974;6.786;2023-04-03T07:30:16;4.80;79.90
26378;DHT22;14078;50.974;6.786;2023-04-03T07:32:44;4.80;1.00
26378;DHT22;14078;50.974;6.786;2023-04-03T07:35:11;4.90;99.90
26378;DHT22;14078;50.974;6.786;2023-04-03T07:37:37;5.00;99.90
26378;DHT22;14078;50.974;6.786;2023-04-03T07:40:04;5.10;1.00
26378;DHT22;14078;50.974;6.786;2023-04-03T07:42:32;5.10;99.90
26378;DHT22;14078;50.974;6.786;2023-04-03T07:44:58;5.20;99.90
26378;DHT22;14078;50.974;6.786;2023-04-03T07:47:25;5.20;55.00
26378;DHT22;14078;50.974;6.786;2023-04-03T07:49:53;5.30;1.00
26378;DHT22;14078;50.974;6.786;2023-04-03T07:52:19;5.30;99.90
26378;DHT22;14078;50.974;6.786;2023-04-03T07:54:46;5.30;99.90
26378;DHT22;14078;50.974;6.786;2023-04-03T07:57:12;5.40;99.90
26378;DHT22;14078;50.974;6.786;2023-04-03T07:59:39;5.50;99.90
26378;DHT22;14078;50.974;6.786;2023-04-03T08:02:08;5.30;99.90
26378;DHT22;14078;50.974;6.786;2023-04-03T08:04:35;5.40;99.90
26378;DHT22;14078;50.974;6.786;2023-04-03T08:07:03;5.50;78.10
26378;DHT22;14078;50.974;6.786;2023-04-03T08:09:29;5.50;1.00
26378;DHT22;14078;50.974;6.786;2023-04-03T08:11:56;5.50;99.90
26378;DHT22;14078;50.974;6.786;2023-04-03T08:14:23;5.50;1.00
26378;DHT22;14078;50.974;6.786;2023-04-03T08:16:49;5.50;1.00
26378;DHT22;14078;50.974;6.786;2023-04-03T08:19:16;5.60;1.00
26378;DHT22;14078;50.974;6.786;2023-04-03T08:21:43;5.60;99.90
26378;DHT22;14078;50.974;6.786;2023-04-03T08:24:11;5.70;1.00
26378;DHT22;14078;50.974;6.786;2023-04-03T08:26:38;5.70;99.90
26378;DHT22;14078;50.974;6.786;2023-04-03T08:29:04;5.80;99.90
26378;DHT22;14078;50.974;6.786;2023-04-03T08:31:31;5.80;99.90
26378;DHT22;14078;50.974;6.786;2023-04-03T08:33:57;6.00;99.90
26378;DHT22;14078;50.974;6.786;2023-04-03T08:36:25;6.10;99.90
26378;DHT22;14078;50.974;6.786;2023-04-03T08:38:52;6.10;99.90
26378;DHT22;14078;50.974;6.786;2023-04-03T08:41:24;6.10;99.90
26378;DHT22;14078;50.974;6.786;2023-04-03T08:43:56;6.10;99.90
26378;DHT22;14078;50.974;6.786;2023-04-03T08:46:26;6.10;99.90
26378;DHT22;14078;50.974;6.786;2023-04-03T08:48:55;6.10;99.90
26378;DHT22;14078;50.974;6.786;2023-04-03T08:51:24;6.20;99.90
26378;DHT22;14078;50.974;6.786;2023-04-03T08:53:54;6.20;99.90
26378;DHT22;14078;50.974;6.786;2023-04-03T08:56:23;6.20;99.90
26378;DHT22;14078;50.974;6.786;2023-04-03T08:58:52;6.20;99.90
26378;DHT22;14078;50.974;6.786;2023-04-03T09:01:23;6.20;99.90
26378;DHT22;14078;50.974;6.786;2023-04-03T09:03:51;6.30;99.90
26378;DHT22;14078;50.974;6.786;2023-04-03T09:06:18;6.30;99.90
26378;DHT22;14078;50.974;6.786;2023-04-03T09:08:47;6.40;99.90
26378;DHT22;14078;50.974;6.786;2023-04-03T09:11:16;6.50;99.90
26378;DHT22;14078;50.974;6.786;2023-04-03T09:13:49;6.50;99.90
26378;DHT22;14078;50.974;6.786;2023-04-03T09:16:24;6.50;99.90
26378;DHT22;14078;50.974;6.786;2023-04-03T09:18:52;6.60;99.90
26378;DHT22;14078;50.974;6.786;2023-04-03T09:21:22;6.60;99.90
26378;DHT22;14078;50.974;6.786;2023-04-03T09:23:50;6.70;99.90
26378;DHT22;14078;50.974;6.786;2023-04-03T09:26:17;6.80;99.90
26378;DHT22;14078;50.974;6.786;2023-04-03T09:28:45;6.80;99.90
26378;DHT22;14078;50.974;6.786;2023-04-03T09:31:16;6.80;99.90
26378;DHT22;14078;50.974;6.786;2023-04-03T09:36:12;6.60;99.90
26378;DHT22;14078;50.974;6.786;2023-04-03T09:38:39;6.80;99.90
26378;DHT22;14078;50.974;6.786;2023-04-03T09:41:06;6.90;99.90
26378;DHT22;14078;50.974;6.786;2023-04-03T09:43:33;7.00;99.90
26378;DHT22;14078;50.974;6.786;2023-04-03T09:46:17;7.00;99.90
26378;DHT22;14078;50.974;6.786;2023-04-03T09:48:49;7.10;99.90
26378;DHT22;14078;50.974;6.786;2023-04-03T09:51:16;7.10;99.90
26378;DHT22;14078;50.974;6.786;2023-04-03T09:53:43;7.20;99.90
26378;DHT22;14078;50.974;6.786;2023-04-03T09:56:18;7.20;99.90
26378;DHT22;14078;50.974;6.786;2023-04-03T09:58:46;7.30;99.90
26378;DHT22;14078;50.974;6.786;2023-04-03T10:01:22;7.30;99.90
26378;DHT22;14078;50.974;6.786;2023-04-03T10:04:02;7.30;99.90
26378;DHT22;14078;50.974;6.786;2023-04-03T10:06:29;7.40;99.90
26378;DHT22;14078;50.974;6.786;2023-04-03T10:08:58;7.40;99.90
26378;DHT22;14078;50.974;6.786;2023-04-03T10:11:25;7.50;99.90
26378;DHT22;14078;50.974;6.786;2023-04-03T10:13:52;7.50;99.90
26378;DHT22;14078;50.974;6.786;2023-04-03T10:16:22;7.40;99.90
26378;DHT22;14078;50.974;6.786;2023-04-03T10:18:53;7.50;99.90
26378;DHT22;14078;50.974;6.786;2023-04-03T10:21:29;7.60;99.90
26378;DHT22;14078;50.974;6.786;2023-04-03T10:23:58;7.70;99.90
26378;DHT22;14078;50.974;6.786;2023-04-03T10:26:31;7.80;99.90
26378;DHT22;14078;50.974;6.786;2023-04-03T10:29:01;7.70;99.90
26378;DHT22;14078;50.974;6.786;2023-04-03T10:31:31;7.80;99.90
26378;DHT22;14078;50.974;6.786;2023-04-03T10:34:02;7.80;99.90
26378;DHT22;14078;50.974;6.786;2023-04-03T10:36:36;7.90;99.90
26378;DHT22;14078;50.974;6.786;2023-04-03T10:39:08;8.00;99.90
26378;DHT22;14078;50.974;6.786;2023-04-03T10:41:39;8.00;99.90
26378;DHT22;14078;50.974;6.786;2023-04-03T10:44:13;8.10;99.90
26378;DHT22;14078;50.974;6.786;2023-04-03T10:46:43;8.10;99.90
26378;DHT22;14078;50.974;6.786;2023-04-03T10:49:14;8.20;99.90
26378;DHT22;14078;50.974;6.786;2023-04-03T10:51:45;8.40;99.90
26378;DHT22;14078;50.974;6.786;2023-04-03T10:54:15;8.50;99.90
26378;DHT22;14078;50.974;6.786;2023-04-03T10:56:46;8.40;99.90
26378;DHT22;14078;50.974;6.786;2023-04-03T10:59:16;8.50;99.90
26378;DHT22;14078;50.974;6.786;2023-04-03T11:04:13;8.50;99.90
26378;DHT22;14078;50.974;6.786;2023-04-03T11:09:11;8.60;99.90
26378;DHT22;14078;50.974;6.786;2023-04-03T11:11:41;8.50;99.90
26378;DHT22;14078;50.974;6.786;2023-04-03T11:51:00;8.70;99.90
26378;DHT22;14078;50.974;6.786;2023-04-03T11:53:28;8.70;1.00
26378;DHT22;14078;50.974;6.786;2023-04-03T11:55:59;8.80;1.00
26378;DHT22;14078;50.974;6.786;2023-04-03T11:58:27;8.90;1.00
26378;DHT22;14078;50.974;6.786;2023-04-03T12:00:55;8.80;1.00
26378;DHT22;14078;50.974;6.786;2023-04-03T12:09:23;9.10;1.00
26378;DHT22;14078;50.974;6.786;2023-04-03T12:11:51;9.20;1.00
26378;DHT22;14078;50.974;6.786;2023-04-03T12:14:17;9.10;1.00
26378;DHT22;14078;50.974;6.786;2023-04-03T12:16:45;9.00;1.00
26378;DHT22;14078;50.974;6.786;2023-04-03T12:19:32;9.10;1.00
26378;DHT22;14078;50.974;6.786;2023-04-03T12:22:06;9.20;1.00
26378;DHT22;14078;50.974;6.786;2023-04-03T12:24:35;9.10;1.00
26378;DHT22;14078;50.974;6.786;2023-04-03T12:27:17;9.10;1.00
26378;DHT22;14078;50.974;6.786;2023-04-03T12:29:47;9.00;1.00
26378;DHT22;14078;50.974;6.786;2023-04-03T12:32:19;9.10;1.00
26378;DHT22;14078;50.974;6.786;2023-04-03T12:34:54;9.10;99.90
26378;DHT22;14078;50.974;6.786;2023-04-03T12:37:27;9.10;99.90
26378;DHT22;14078;50.974;6.786;2023-04-03T12:40:02;9.10;1.00
26378;DHT22;14078;50.974;6.786;2023-04-03T12:42:55;9.10;99.90
26378;DHT22;14078;50.974;6.786;2023-04-03T12:45:23;9.20;99.90
26378;DHT22;14078;50.974;6.786;2023-04-03T12:47:51;9.30;99.90
26378;DHT22;14078;50.974;6.786;2023-04-03T12:50:20;9.30;99.90
26378;DHT22;14078;50.974;6.786;2023-04-03T12:52:50;9.20;99.90
26378;DHT22;14078;50.974;6.786;2023-04-03T12:55:19;9.20;99.90
26378;DHT22;14078;50.974;6.786;2023-04-03T12:57:47;9.20;99.90
26378;DHT22;14078;50.974;6.786;2023-04-03T13:03:04;9.10;99.90
26378;DHT22;14078;50.974;6.786;2023-04-03T13:05:32;9.40;99.90
26378;DHT22;14078;50.974;6.786;2023-04-03T13:08:00;9.20;99.90
26378;DHT22;14078;50.974;6.786;2023-04-03T13:10:28;9.30;99.90
26378;DHT22;14078;50.974;6.786;2023-04-03T13:12:56;9.20;99.90
26378;DHT22;14078;50.974;6.786;2023-04-03T13:15:25;9.10;99.90
26378;DHT22;14078;50.974;6.786;2023-04-03T13:17:53;9.10;99.90
26378;DHT22;14078;50.974;6.786;2023-04-03T13:20:21;9.10;99.90
26378;DHT22;14078;50.974;6.786;2023-04-03T13:22:52;9.30;99.90
26378;DHT22;14078;50.974;6.786;2023-04-03T13:25:23;9.30;99.90
26378;DHT22;14078;50.974;6.786;2023-04-03T13:27:52;9.30;99.90
26378;DHT22;14078;50.974;6.786;2023-04-03T13:30:20;9.30;99.90
26378;DHT22;14078;50.974;6.786;2023-04-03T13:32:47;9.20;99.90
26378;DHT22;14078;50.974;6.786;2023-04-03T13:35:30;9.20;99.90
26378;DHT22;14078;50.974;6.786;2023-04-03T13:37:59;9.40;99.90
26378;DHT22;14078;50.974;6.786;2023-04-03T13:40:26;9.50;99.90
26378;DHT22;14078;50.974;6.786;2023-04-03T13:43:05;9.60;99.90
26378;DHT22;14078;50.974;6.786;2023-04-03T13:45:32;9.70;99.90
26378;DHT22;14078;50.974;6.786;2023-04-03T13:48:09;9.70;99.90
26378;DHT22;14078;50.974;6.786;2023-04-03T13:50:50;9.70;99.90
26378;DHT22;14078;50.974;6.786;2023-04-03T13:53:16;9.90;99.90
26378;DHT22;14078;50.974;6.786;2023-04-03T13:55:52;9.90;99.90
26378;DHT22;14078;50.974;6.786;2023-04-03T13:58:22;9.60;99.90
26378;DHT22;14078;50.974;6.786;2023-04-03T14:00:50;9.60;99.90
26378;DHT22;14078;50.974;6.786;2023-04-03T14:03:19;9.40;99.90
26378;DHT22;14078;50.974;6.786;2023-04-03T14:05:46;9.40;99.90
26378;DHT22;14078;50.974;6.786;2023-04-03T14:08:13;9.50;99.90
26378;DHT22;14078;50.974;6.786;2023-04-03T14:10:39;9.60;99.90
26378;DHT22;14078;50.974;6.786;2023-04-03T14:13:08;9.60;99.90
26378;DHT22;14078;50.974;6.786;2023-04-03T14:15:36;9.70;99.90
26378;DHT22;14078;50.974;6.786;2023-04-03T14:18:03;9.70;99.90
26378;DHT22;14078;50.974;6.786;2023-04-03T14:20:29;9.70;99.90
26378;DHT22;14078;50.974;6.786;2023-04-03T14:22:56;9.70;99.90
26378;DHT22;14078;50.974;6.786;2023-04-03T14:25:23;9.90;99.90
26378;DHT22;14078;50.974;6.786;2023-04-03T14:27:51;10.00;99.90
26378;DHT22;14078;50.974;6.786;2023-04-03T14:30:20;10.00;99.90
26378;DHT22;14078;50.974;6.786;2023-04-03T14:32:48;10.00;99.90
26378;DHT22;14078;50.974;6.786;2023-04-03T14:35:15;9.90;99.90
26378;DHT22;14078;50.974;6.786;2023-04-03T14:37:44;9.80;99.90
26378;DHT22;14078;50.974;6.786;2023-04-03T14:40:11;9.70;99.90
26378;DHT22;14078;50.974;6.786;2023-04-03T14:42:39;9.60;99.90
26378;DHT22;14078;50.974;6.786;2023-04-03T14:45:06;9.60;99.90
26378;DHT22;14078;50.974;6.786;2023-04-03T14:47:33;9.70;99.90
26378;DHT22;14078;50.974;6.786;2023-04-03T14:50:03;9.80;99.90
26378;DHT22;14078;50.974;6.786;2023-04-03T14:52:31;9.80;99.90
26378;DHT22;14078;50.974;6.786;2023-04-03T14:54:58;9.80;99.90
26378;DHT22;14078;50.974;6.786;2023-04-03T14:57:25;9.70;99.90
26378;DHT22;14078;50.974;6.786;2023-04-03T14:59:53;9.80;99.90
26378;DHT22;14078;50.974;6.786;2023-04-03T15:02:24;9.80;99.90
26378;DHT22;14078;50.974;6.786;2023-04-03T15:04:51;9.90;99.90
26378;DHT22;14078;50.974;6.786;2023-04-03T15:07:19;9.90;99.90
26378;DHT22;14078;50.974;6.786;2023-04-03T15:09:45;10.20;99.90
26378;DHT22;14078;50.974;6.786;2023-04-03T15:12:12;10.30;99.90
26378;DHT22;14078;50.974;6.786;2023-04-03T15:14:38;10.30;99.90
26378;DHT22;14078;50.974;6.786;2023-04-03T15:17:05;10.50;99.90
26378;DHT22;14078;50.974;6.786;2023-04-03T15:19:32;10.60;99.90
26378;DHT22;14078;50.974;6.786;2023-04-03T15:22:02;10.90;99.90
26378;DHT22;14078;50.974;6.786;2023-04-03T15:24:29;10.90;99.90
26378;DHT22;14078;50.974;6.786;2023-04-03T15:26:56;10.60;99.90
26378;DHT22;14078;50.974;6.786;2023-04-03T15:29:22;10.80;99.90
26378;DHT22;14078;50.974;6.786;2023-04-03T15:31:49;10.90;99.90
26378;DHT22;14078;50.974;6.786;2023-04-03T15:34:18;11.50;99.90
26378;DHT22;14078;50.974;6.786;2023-04-03T15:36:46;11.50;99.90
26378;DHT22;14078;50.974;6.786;2023-04-03T15:39:13;11.30;99.90
26378;DHT22;14078;50.974;6.786;2023-04-03T15:41:41;11.90;99.90
26378;DHT22;14078;50.974;6.786;2023-04-03T15:44:07;12.20;99.90
26378;DHT22;14078;50.974;6.786;2023-04-03T15:46:34;11.10;99.90
26378;DHT22;14078;50.974;6.786;2023-04-03T15:49:00;10.80;99.90
26378;DHT22;14078;50.974;6.786;2023-04-03T15:51:27;10.50;99.90
26378;DHT22;14078;50.974;6.786;2023-04-03T15:53:53;10.60;99.90
26378;DHT22;14078;50.974;6.786;2023-04-03T15:56:20;11.60;99.90
26378;DHT22;14078;50.974;6.786;2023-04-03T15:58:48;11.90;99.90
26378;DHT22;14078;50.974;6.786;2023-04-03T16:01:14;11.60;99.90
26378;DHT22;14078;50.974;6.786;2023-04-03T16:03:41;11.60;99.90
26378;DHT22;14078;50.974;6.786;2023-04-03T16:06:10;11.00;99.90
26378;DHT22;14078;50.974;6.786;2023-04-03T16:08:37;11.20;99.90
26378;DHT22;14078;50.974;6.786;2023-04-03T16:11:03;11.20;99.90
26378;DHT22;14078;50.974;6.786;2023-04-03T16:13:30;10.70;99.90
26378;DHT22;14078;50.974;6.786;2023-04-03T16:15:59;10.90;99.90
26378;DHT22;14078;50.974;6.786;2023-04-03T16:18:26;11.30;99.90
26378;DHT22;14078;50.974;6.786;2023-04-03T16:20:53;11.50;99.90
26378;DHT22;14078;50.974;6.786;2023-04-03T16:23:19;11.90;99.90
26378;DHT22;14078;50.974;6.786;2023-04-03T16:25:46;12.00;99.90
26378;DHT22;14078;50.974;6.786;2023-04-03T16:28:13;11.70;99.90
26378;DHT22;14078;50.974;6.786;2023-04-03T16:30:40;11.40;99.90
26378;DHT22;14078;50.974;6.786;2023-04-03T16:33:08;11.20;99.90
26378;DHT22;14078;50.974;6.786;2023-04-03T16:35:34;11.10;99.90
26378;DHT22;14078;50.974;6.786;2023-04-03T16:38:01;10.70;99.90
26378;DHT22;14078;50.974;6.786;2023-04-03T16:40:27;9.80;99.90
26378;DHT22;14078;50.974;6.786;2023-04-03T16:42:54;9.60;99.90